createdAt,value
2018-02-15T00:00:35.312Z,104.75
2018-02-15T00:01:37.961Z,115.30
2018-02-15T00:02:41.228Z,103.87
2018-02-15T00:03:43.767Z,100.28
2018-02-15T00:04:47.038Z,101.18
2018-02-15T00:05:49.548Z,97.55
2018-02-15T00:06:52.850Z,112.95
2018-02-15T00:07:55.332Z,95.12
2018-02-15T00:08:58.011Z,116.07
2018-02-15T00:10:00.604Z,116.90
2018-02-15T00:11:03.106Z,108.75
2018-02-15T00:12:06.411Z,117.68
2018-02-15T00:13:09.684Z,114.60
2018-02-15T00:14:12.966Z,141.15
2018-02-15T00:15:15.970Z,113.03
2018-02-15T00:16:19.250Z,110.15
2018-02-15T00:17:21.864Z,134.37
2018-02-15T00:18:24.391Z,119.78
2018-02-15T00:19:26.885Z,108.87
2018-02-15T00:20:30.143Z,114.00
2018-02-15T00:21:32.649Z,118.43
2018-02-15T00:22:35.940Z,121.53
2018-02-15T00:23:38.429Z,119.87
2018-02-15T00:24:41.703Z,120.03
2018-02-15T00:25:44.204Z,125.93
2018-02-15T00:26:46.722Z,131.57
2018-02-15T00:27:50.031Z,127.82
2018-02-15T00:28:52.528Z,141.48
2018-02-15T00:29:55.040Z,131.85
2018-02-15T00:30:57.549Z,124.32
2018-02-15T00:32:00.075Z,129.68
2018-02-15T00:33:02.758Z,126.87
2018-02-15T00:34:05.271Z,127.62
2018-02-15T00:35:08.222Z,127.03
2018-02-15T00:36:10.748Z,122.68
2018-02-15T00:37:13.229Z,117.80
2018-02-15T00:38:15.720Z,125.22
2018-02-15T00:39:19.017Z,109.40
2018-02-15T00:40:21.516Z,122.45
2018-02-15T00:41:24.041Z,108.10
2018-02-15T00:42:26.561Z,112.55
2018-02-15T00:43:29.093Z,109.60
2018-02-15T00:44:31.595Z,120.87
2018-02-15T00:45:34.910Z,114.50
2018-02-15T00:46:37.498Z,107.28
2018-02-15T00:47:40.042Z,101.05
2018-02-15T00:48:43.214Z,115.82
2018-02-15T00:49:47.253Z,108.53
2018-02-15T00:50:49.751Z,107.35
2018-02-15T00:51:52.230Z,122.40
2018-02-15T00:52:54.774Z,116.20
2018-02-15T00:53:58.037Z,117.20
2018-02-15T00:55:00.563Z,114.78
2018-02-15T00:56:03.107Z,119.57
2018-02-15T00:57:05.592Z,126.57
2018-02-15T00:58:09.113Z,112.45
2018-02-15T00:59:11.618Z,118.90
2018-02-15T01:00:14.157Z,126.15
2018-02-15T01:01:17.471Z,137.37
2018-02-15T01:02:19.995Z,117.13
2018-02-15T01:03:22.716Z,115.57
2018-02-15T01:04:25.265Z,137.90
2018-02-15T01:05:28.110Z,126.35
2018-02-15T01:06:30.599Z,117.90
2018-02-15T01:07:33.166Z,123.05
2018-02-15T01:08:35.775Z,115.55
2018-02-15T01:09:38.263Z,155.37
2018-02-15T01:10:41.552Z,130.52
2018-02-15T01:11:44.066Z,117.35
2018-02-15T01:12:46.569Z,147.25
2018-02-15T01:13:49.103Z,137.05
2018-02-15T01:14:51.614Z,141.80
2018-02-15T01:15:54.106Z,122.82
2018-02-15T01:16:57.377Z,128.70
2018-02-15T01:18:00.650Z,125.50
2018-02-15T01:19:03.169Z,125.65
2018-02-15T01:20:05.731Z,127.32
2018-02-15T01:21:08.233Z,127.12
2018-02-15T01:22:10.768Z,126.40
2018-02-15T01:23:13.300Z,114.18
2018-02-15T01:24:16.618Z,120.62
2018-02-15T01:25:19.217Z,136.80
2018-02-15T01:26:22.473Z,132.25
2018-02-15T01:27:25.758Z,129.95
2018-02-15T01:28:28.259Z,111.35
2018-02-15T01:29:30.746Z,130.75
2018-02-15T01:30:33.251Z,122.72
2018-02-15T01:31:36.511Z,130.90
2018-02-15T01:32:39.017Z,133.73
2018-02-15T01:33:41.553Z,127.50
2018-02-15T01:34:45.553Z,141.82
2018-02-15T01:35:48.036Z,135.27
2018-02-15T01:36:50.527Z,131.65
2018-02-15T01:37:53.040Z,139.65
2018-02-15T01:38:55.570Z,128.65
2018-02-15T01:39:58.349Z,135.85
2018-02-15T01:41:00.852Z,138.93
2018-02-15T01:42:03.353Z,151.23
2018-02-15T01:43:05.852Z,138.45
2018-02-15T01:44:08.362Z,147.82
2018-02-15T01:45:11.638Z,143.77
2018-02-15T01:46:14.130Z,133.55
2018-02-15T01:47:17.394Z,138.85
2018-02-15T01:48:19.975Z,146.75
2018-02-15T01:49:22.475Z,136.05
2018-02-15T01:50:24.965Z,150.20
2018-02-15T01:51:28.245Z,148.70
2018-02-15T01:52:30.736Z,137.75
2018-02-15T01:53:33.233Z,158.63
2018-02-15T01:54:35.737Z,153.15
2018-02-15T01:55:38.241Z,151.93
2018-02-15T01:56:40.781Z,156.27
2018-02-15T01:57:43.280Z,159.02
2018-02-15T01:58:46.442Z,145.18
2018-02-15T01:59:48.944Z,140.52
2018-02-15T02:00:51.438Z,137.23
2018-02-15T02:01:54.739Z,142.68
2018-02-15T02:02:58.072Z,123.82
2018-02-15T02:04:00.608Z,130.40
2018-02-15T02:05:03.126Z,123.10
2018-02-15T02:06:05.640Z,136.50
2018-02-15T02:07:08.166Z,123.65
2018-02-15T02:08:10.659Z,123.93
2018-02-15T02:09:13.955Z,122.57
2018-02-15T02:10:17.454Z,122.15
2018-02-15T02:11:20.850Z,123.20
2018-02-15T02:12:23.361Z,119.43
2018-02-15T02:13:25.853Z,133.40
2018-02-15T02:14:29.134Z,124.00
2018-02-15T02:15:31.622Z,112.75
2018-02-15T02:16:34.921Z,138.00
2018-02-15T02:17:37.447Z,123.82
2018-02-15T02:18:39.946Z,122.20
2018-02-15T02:19:42.499Z,112.82
2018-02-15T02:20:45.730Z,124.40
2018-02-15T02:21:48.251Z,107.22
2018-02-15T02:22:50.777Z,110.72
2018-02-15T02:23:53.270Z,115.32
2018-02-15T02:24:56.545Z,116.50
2018-02-15T02:25:59.053Z,112.30
2018-02-15T02:27:01.577Z,115.35
2018-02-15T02:28:04.109Z,128.98
2018-02-15T02:29:06.623Z,125.30
2018-02-15T02:30:09.152Z,122.15
2018-02-15T02:31:11.655Z,125.85
2018-02-15T02:32:14.910Z,123.03
2018-02-15T02:33:17.468Z,128.50
2018-02-15T02:34:20.013Z,118.57
2018-02-15T02:35:22.530Z,129.20
2018-02-15T02:36:25.019Z,130.32
2018-02-15T02:37:27.928Z,117.40
2018-02-15T02:38:31.229Z,116.72
2018-02-15T02:39:33.730Z,124.65
2018-02-15T02:40:36.281Z,129.30
2018-02-15T02:41:38.777Z,124.57
2018-02-15T02:42:41.294Z,117.57
2018-02-15T02:43:43.806Z,116.25
2018-02-15T02:44:47.090Z,119.32
2018-02-15T02:45:50.443Z,103.38
2018-02-15T02:46:52.962Z,108.82
2018-02-15T02:47:55.462Z,121.68
2018-02-15T02:48:57.970Z,109.82
2018-02-15T02:50:02.033Z,112.50
2018-02-15T02:51:05.336Z,99.75
2018-02-15T02:52:07.821Z,107.03
2018-02-15T02:53:10.391Z,102.07
2018-02-15T02:54:12.913Z,105.35
2018-02-15T02:55:15.420Z,89.55
2018-02-15T02:56:18.618Z,106.95
2018-02-15T02:57:22.005Z,97.95
2018-02-15T02:58:24.520Z,99.78
2018-02-15T02:59:27.008Z,108.60
2018-02-15T03:00:29.506Z,103.43
2018-02-15T03:01:32.003Z,86.37
2018-02-15T03:02:34.491Z,111.78
2018-02-15T03:03:37.803Z,114.90
2018-02-15T03:04:40.299Z,105.97
2018-02-15T03:05:42.807Z,115.47
2018-02-15T03:06:45.364Z,113.90
2018-02-15T03:07:48.026Z,115.80
2018-02-15T03:08:51.470Z,117.22
2018-02-15T03:09:55.489Z,113.60
2018-02-15T03:10:58.021Z,130.37
2018-02-15T03:12:00.534Z,111.65
2018-02-15T03:13:03.032Z,121.47
2018-02-15T03:14:06.318Z,107.45
2018-02-15T03:15:08.818Z,111.05
2018-02-15T03:16:11.314Z,117.37
2018-02-15T03:17:14.592Z,110.65
2018-02-15T03:18:17.083Z,114.60
2018-02-15T03:19:20.451Z,115.60
2018-02-15T03:20:23.693Z,122.55
2018-02-15T03:21:26.248Z,119.62
2018-02-15T03:22:28.775Z,118.85
2018-02-15T03:23:31.326Z,121.05
2018-02-15T03:24:33.913Z,110.90
2018-02-15T03:25:36.568Z,119.95
2018-02-15T03:26:39.049Z,105.45
2018-02-15T03:27:42.307Z,106.18
2018-02-15T03:28:44.832Z,111.10
2018-02-15T03:29:48.288Z,115.28
2018-02-15T03:30:50.770Z,116.15
2018-02-15T03:31:54.018Z,130.30
2018-02-15T03:32:57.295Z,120.05
2018-02-15T03:33:59.822Z,124.57
2018-02-15T03:35:02.458Z,124.72
2018-02-15T03:36:04.957Z,108.10
2018-02-15T03:37:07.446Z,122.37
2018-02-15T03:38:10.701Z,113.57
2018-02-15T03:39:13.901Z,117.97
2018-02-15T03:40:16.527Z,113.10
2018-02-15T03:41:19.029Z,127.00
2018-02-15T03:42:21.555Z,125.35
2018-02-15T03:43:24.099Z,136.37
2018-02-15T03:44:26.624Z,124.15
2018-02-15T03:45:29.148Z,140.90
2018-02-15T03:46:31.673Z,112.30
2018-02-15T03:47:34.170Z,116.53
2018-02-15T03:48:36.679Z,135.07
2018-02-15T03:49:39.948Z,122.25
2018-02-15T03:50:42.474Z,114.05
2018-02-15T03:51:44.977Z,130.27
2018-02-15T03:52:48.237Z,120.70
2018-02-15T03:53:51.515Z,114.07
2018-02-15T03:54:54.056Z,126.65
2018-02-15T03:55:56.585Z,123.55
2018-02-15T03:56:59.169Z,116.32
2018-02-15T03:58:01.736Z,122.45
2018-02-15T03:59:05.035Z,136.40
2018-02-15T04:00:07.538Z,110.25
2018-02-15T04:01:10.854Z,113.32
2018-02-15T04:02:13.370Z,106.82
2018-02-15T04:03:15.873Z,119.35
2018-02-15T04:04:18.359Z,123.00
2018-02-15T04:05:21.627Z,115.43
2018-02-15T04:06:24.151Z,111.50
2018-02-15T04:07:26.649Z,117.55
2018-02-15T04:08:29.942Z,118.30
2018-02-15T04:09:32.435Z,112.97
2018-02-15T04:10:34.942Z,118.65
2018-02-15T04:11:38.242Z,118.37
2018-02-15T04:12:40.876Z,128.38
2018-02-15T04:13:43.473Z,132.37
2018-02-15T04:14:46.022Z,110.60
2018-02-15T04:15:48.525Z,119.45
2018-02-15T04:16:51.046Z,111.88
2018-02-15T04:17:53.540Z,125.32
2018-02-15T04:18:56.325Z,128.80
2018-02-15T04:19:58.813Z,129.80
2018-02-15T04:21:02.076Z,123.22
2018-02-15T04:22:05.356Z,124.68
2018-02-15T04:23:07.894Z,115.93
2018-02-15T04:24:10.520Z,115.30
2018-02-15T04:25:13.108Z,120.22
2018-02-15T04:26:15.612Z,118.47
2018-02-15T04:27:18.880Z,122.93
2018-02-15T04:28:21.393Z,108.53
2018-02-15T04:29:23.934Z,115.32
2018-02-15T04:30:26.444Z,111.18
2018-02-15T04:31:28.959Z,116.75
2018-02-15T04:32:31.454Z,109.97
2018-02-15T04:33:35.517Z,112.88
2018-02-15T04:34:38.111Z,110.35
2018-02-15T04:35:40.660Z,117.22
2018-02-15T04:36:43.938Z,122.60
2018-02-15T04:37:46.604Z,123.35
2018-02-15T04:38:49.116Z,121.20
2018-02-15T04:39:52.416Z,123.05
2018-02-15T04:40:56.079Z,105.87
2018-02-15T04:41:59.427Z,114.43
2018-02-15T04:43:03.679Z,124.28
2018-02-15T04:44:06.242Z,106.72
2018-02-15T04:45:09.114Z,103.97
2018-02-15T04:46:12.450Z,102.82
2018-02-15T04:47:15.036Z,107.32
2018-02-15T04:48:17.547Z,108.65
2018-02-15T04:49:20.817Z,111.45
2018-02-15T04:50:24.452Z,96.32
2018-02-15T04:51:27.005Z,96.87
2018-02-15T04:52:29.545Z,107.12
2018-02-15T04:53:32.053Z,95.60
2018-02-15T04:54:34.563Z,102.65
2018-02-15T04:55:37.119Z,111.43
2018-02-15T04:56:39.606Z,108.53
2018-02-15T04:57:42.894Z,103.75
2018-02-15T04:58:45.724Z,106.47
2018-02-15T04:59:48.233Z,103.82
2018-02-15T05:00:50.735Z,116.78
2018-02-15T05:01:54.016Z,115.57
2018-02-15T05:02:56.535Z,96.28
2018-02-15T05:03:59.046Z,105.60
2018-02-15T05:05:01.550Z,111.75
2018-02-15T05:06:04.925Z,98.50
2018-02-15T05:07:07.445Z,93.22
2018-02-15T05:08:10.762Z,108.00
2018-02-15T05:09:14.826Z,93.87
2018-02-15T05:10:18.101Z,94.72
2018-02-15T05:11:21.385Z,99.53
2018-02-15T05:12:23.886Z,102.60
2018-02-15T05:13:26.392Z,99.78
2018-02-15T05:14:28.925Z,99.13
2018-02-15T05:15:31.417Z,92.20
2018-02-15T05:16:34.694Z,89.97
2018-02-15T05:17:37.200Z,86.97
2018-02-15T05:18:39.703Z,90.93
2018-02-15T05:19:42.983Z,87.70
2018-02-15T05:20:45.481Z,97.95
2018-02-15T05:21:48.037Z,87.65
2018-02-15T05:22:51.525Z,84.43
2018-02-15T05:23:54.055Z,93.85
2018-02-15T05:24:56.685Z,84.32
2018-02-15T05:25:59.196Z,84.57
2018-02-15T05:27:02.432Z,80.43
2018-02-15T05:28:04.924Z,81.28
2018-02-15T05:29:07.517Z,87.35
2018-02-15T05:30:10.802Z,77.80
2018-02-15T05:31:13.329Z,82.25
2018-02-15T05:32:15.842Z,89.70
2018-02-15T05:33:18.390Z,87.20
2018-02-15T05:34:20.935Z,84.13
2018-02-15T05:35:23.433Z,89.37
2018-02-15T05:36:25.936Z,79.03
2018-02-15T05:37:28.433Z,90.25
2018-02-15T05:38:31.683Z,82.40
2018-02-15T05:39:34.974Z,81.72
2018-02-15T05:40:37.489Z,85.93
2018-02-15T05:41:40.126Z,79.62
2018-02-15T05:42:42.596Z,79.50
2018-02-15T05:43:45.105Z,88.43
2018-02-15T05:44:47.608Z,81.37
2018-02-15T05:45:50.808Z,90.53
2018-02-15T05:46:54.079Z,89.60
2018-02-15T05:47:57.428Z,91.65
2018-02-15T05:48:59.909Z,78.20
2018-02-15T05:50:03.200Z,91.65
2018-02-15T05:51:05.689Z,78.50
2018-02-15T05:52:08.994Z,81.05
2018-02-15T05:53:11.496Z,82.30
2018-02-15T05:54:14.010Z,74.75
2018-02-15T05:55:16.554Z,87.88
2018-02-15T05:56:19.090Z,76.78
2018-02-15T05:57:21.721Z,75.65
2018-02-15T05:58:25.747Z,81.22
2018-02-15T05:59:28.899Z,72.80
2018-02-15T06:00:31.424Z,70.93
2018-02-15T06:01:33.951Z,72.62
2018-02-15T06:02:36.478Z,77.75
2018-02-15T06:03:38.997Z,79.55
2018-02-15T06:04:41.527Z,81.45
2018-02-15T06:05:44.050Z,78.95
2018-02-15T06:06:46.552Z,80.82
2018-02-15T06:07:49.167Z,78.25
2018-02-15T06:08:52.453Z,86.72
2018-02-15T06:09:56.355Z,78.62
2018-02-15T06:11:00.371Z,73.35
2018-02-15T06:12:02.858Z,74.57
2018-02-15T06:13:06.237Z,79.18
2018-02-15T06:14:08.754Z,89.07
2018-02-15T06:15:11.257Z,83.65
2018-02-15T06:16:14.508Z,85.95
2018-02-15T06:17:16.997Z,78.50
2018-02-15T06:18:20.682Z,76.32
2018-02-15T06:19:23.164Z,82.45
2018-02-15T06:20:25.804Z,78.82
2018-02-15T06:21:29.208Z,73.97
2018-02-15T06:22:31.873Z,85.05
2018-02-15T06:23:34.535Z,84.47
2018-02-15T06:24:37.922Z,73.15
2018-02-15T06:25:40.592Z,78.53
2018-02-15T06:26:43.309Z,83.72
2018-02-15T06:27:47.483Z,107.15
2018-02-15T06:28:50.734Z,95.45
2018-02-15T06:29:54.146Z,94.80
2018-02-15T06:30:56.780Z,92.72
2018-02-15T06:31:59.397Z,97.07
2018-02-15T06:33:02.097Z,99.30
2018-02-15T06:34:04.765Z,106.85
2018-02-15T06:35:07.391Z,102.30
2018-02-15T06:36:10.128Z,108.87
2018-02-15T06:37:13.589Z,96.60
2018-02-15T06:38:16.215Z,110.15
2018-02-15T06:39:19.697Z,103.25
2018-02-15T06:40:22.352Z,106.55
2018-02-15T06:41:24.981Z,103.22
2018-02-15T06:42:28.225Z,96.15
2018-02-15T06:43:30.861Z,93.12
2018-02-15T06:44:33.506Z,107.95
2018-02-15T06:45:36.148Z,101.82
2018-02-15T06:46:38.781Z,102.18
2018-02-15T06:47:42.201Z,90.55
2018-02-15T06:48:44.850Z,95.53
2018-02-15T06:49:49.116Z,97.80
2018-02-15T06:50:51.750Z,102.30
2018-02-15T06:51:54.411Z,94.82
2018-02-15T06:52:57.068Z,98.05
2018-02-15T06:53:59.724Z,93.07
2018-02-15T06:55:02.364Z,96.70
2018-02-15T06:56:05.404Z,99.95
2018-02-15T06:57:08.048Z,96.22
2018-02-15T06:58:11.460Z,99.32
2018-02-15T06:59:14.830Z,98.90
2018-02-15T07:00:17.484Z,104.22
2018-02-15T07:01:20.132Z,95.43
2018-02-15T07:02:22.785Z,94.70
2018-02-15T07:03:25.419Z,98.55
2018-02-15T07:04:28.090Z,99.10
2018-02-15T07:05:31.515Z,105.22
2018-02-15T07:06:34.962Z,92.70
2018-02-15T07:07:37.674Z,98.68
2018-02-15T07:08:40.316Z,99.03
2018-02-15T07:09:44.539Z,105.45
2018-02-15T07:10:47.194Z,95.32
2018-02-15T07:11:49.812Z,106.80
2018-02-15T07:12:52.507Z,100.22
2018-02-15T07:13:55.145Z,95.62
2018-02-15T07:14:57.769Z,96.43
2018-02-15T07:16:00.429Z,97.90
2018-02-15T07:17:03.058Z,97.80
2018-02-15T07:18:05.709Z,102.65
2018-02-15T07:19:08.386Z,102.03
2018-02-15T07:20:11.019Z,96.22
2018-02-15T07:21:14.426Z,97.25
2018-02-15T07:22:17.863Z,99.78
2018-02-15T07:23:20.502Z,105.03
2018-02-15T07:24:23.889Z,94.57
2018-02-15T07:25:26.549Z,91.40
2018-02-15T07:26:29.393Z,91.18
2018-02-15T07:27:32.057Z,98.37
2018-02-15T07:28:35.283Z,88.37
2018-02-15T07:29:38.708Z,92.07
2018-02-15T07:30:42.100Z,95.57
2018-02-15T07:31:44.715Z,92.68
2018-02-15T07:32:48.148Z,77.82
2018-02-15T07:33:51.559Z,93.65
2018-02-15T07:34:54.195Z,84.10
2018-02-15T07:35:56.818Z,95.47
2018-02-15T07:36:59.468Z,91.30
2018-02-15T07:38:02.828Z,89.05
2018-02-15T07:39:06.235Z,90.28
2018-02-15T07:40:09.753Z,79.90
2018-02-15T07:41:12.406Z,84.18
2018-02-15T07:42:15.042Z,73.07
2018-02-15T07:43:18.296Z,72.80
2018-02-15T07:44:20.998Z,73.80
2018-02-15T07:45:23.644Z,76.05
2018-02-15T07:46:26.288Z,68.10
2018-02-15T07:47:30.592Z,72.50
2018-02-15T07:48:33.238Z,68.05
2018-02-15T07:49:35.913Z,72.55
2018-02-15T07:50:38.541Z,70.80
2018-02-15T07:51:42.666Z,79.28
2018-02-15T07:52:45.338Z,73.95
2018-02-15T07:53:48.016Z,69.47
2018-02-15T07:54:50.646Z,71.10
2018-02-15T07:55:53.272Z,74.47
2018-02-15T07:56:55.896Z,66.10
2018-02-15T07:57:58.661Z,71.87
2018-02-15T07:59:01.331Z,68.05
2018-02-15T08:00:04.740Z,71.97
2018-02-15T08:01:07.492Z,66.05
2018-02-15T08:02:10.113Z,65.97
2018-02-15T08:03:12.791Z,68.50
2018-02-15T08:04:15.468Z,65.72
2018-02-15T08:05:18.869Z,75.72
2018-02-15T08:06:21.501Z,67.72
2018-02-15T08:07:24.364Z,68.20
2018-02-15T08:08:27.010Z,68.72
2018-02-15T08:09:29.648Z,73.87
2018-02-15T08:10:33.208Z,72.47
2018-02-15T08:11:36.599Z,74.53
2018-02-15T08:12:39.254Z,76.18
2018-02-15T08:13:41.910Z,72.97
2018-02-15T08:14:44.576Z,91.55
2018-02-15T08:15:47.591Z,64.12
2018-02-15T08:16:50.249Z,73.18
2018-02-15T08:17:52.888Z,77.75
2018-02-15T08:18:55.533Z,84.32
2018-02-15T08:19:58.988Z,74.82
2018-02-15T08:21:01.724Z,65.55
2018-02-15T08:22:04.383Z,78.00
2018-02-15T08:23:07.010Z,70.18
2018-02-15T08:24:09.656Z,77.07
2018-02-15T08:25:12.287Z,76.68
2018-02-15T08:26:14.988Z,75.90
2018-02-15T08:27:18.386Z,75.37
2018-02-15T08:28:21.834Z,63.55
2018-02-15T08:29:24.500Z,68.12
2018-02-15T08:30:27.991Z,72.72
2018-02-15T08:31:30.665Z,79.10
2018-02-15T08:32:34.072Z,80.07
2018-02-15T08:33:36.712Z,67.50
2018-02-15T08:34:39.359Z,70.57
2018-02-15T08:35:41.983Z,71.75
2018-02-15T08:36:46.026Z,66.22
2018-02-15T08:37:48.708Z,65.05
2018-02-15T08:38:52.115Z,72.72
2018-02-15T08:39:54.735Z,77.60
2018-02-15T08:40:57.352Z,70.85
2018-02-15T08:42:00.004Z,69.37
2018-02-15T08:43:02.652Z,76.00
2018-02-15T08:44:05.325Z,77.85
2018-02-15T08:45:08.010Z,67.78
2018-02-15T08:46:10.644Z,75.62
2018-02-15T08:47:13.265Z,68.50
2018-02-15T08:48:15.897Z,77.22
2018-02-15T08:49:19.326Z,75.87
2018-02-15T08:50:22.274Z,74.12
2018-02-15T08:51:24.994Z,70.60
2018-02-15T08:52:28.380Z,69.40
2018-02-15T08:53:32.519Z,68.35
2018-02-15T08:54:35.238Z,59.42
2018-02-15T08:55:39.372Z,76.72
2018-02-15T08:56:42.058Z,66.22
2018-02-15T08:57:45.478Z,62.30
2018-02-15T08:58:48.785Z,74.40
2018-02-15T08:59:51.445Z,74.28
2018-02-15T09:00:54.086Z,61.13
2018-02-15T09:01:56.718Z,62.35
2018-02-15T09:02:59.352Z,80.10
2018-02-15T09:04:02.768Z,64.78
2018-02-15T09:05:05.420Z,65.87
2018-02-15T09:06:09.154Z,71.15
2018-02-15T09:07:11.772Z,81.80
2018-02-15T09:08:14.400Z,76.50
2018-02-15T09:09:17.051Z,80.25
2018-02-15T09:10:20.559Z,74.22
2018-02-15T09:11:23.735Z,75.22
2018-02-15T09:12:26.974Z,79.57
2018-02-15T09:13:31.156Z,72.43
2018-02-15T09:14:34.698Z,70.43
2018-02-15T09:15:37.334Z,77.15
2018-02-15T09:16:39.954Z,84.20
2018-02-15T09:17:43.160Z,71.47
2018-02-15T09:18:45.797Z,82.72
2018-02-15T09:19:48.465Z,68.68
2018-02-15T09:20:51.886Z,65.80
2018-02-15T09:21:54.527Z,69.07
2018-02-15T09:22:58.658Z,69.40
2018-02-15T09:24:01.292Z,70.03
2018-02-15T09:25:04.630Z,79.45
2018-02-15T09:26:07.264Z,73.75
2018-02-15T09:27:09.897Z,76.90
2018-02-15T09:28:12.534Z,68.43
2018-02-15T09:29:15.182Z,78.87
2018-02-15T09:30:17.807Z,79.40
2018-02-15T09:31:20.592Z,67.57
2018-02-15T09:32:23.236Z,79.37
2018-02-15T09:33:26.743Z,66.05
2018-02-15T09:34:29.441Z,67.40
2018-02-15T09:35:32.066Z,70.00
2018-02-15T09:36:35.071Z,65.60
2018-02-15T09:37:37.841Z,61.60
2018-02-15T09:38:41.439Z,59.92
2018-02-15T09:39:44.943Z,61.00
2018-02-15T09:40:47.707Z,60.30
2018-02-15T09:41:50.509Z,54.72
2018-02-15T09:42:53.219Z,55.42
2018-02-15T09:43:56.494Z,53.55
2018-02-15T09:44:59.899Z,53.05
2018-02-15T09:46:02.532Z,60.63
2018-02-15T09:47:05.420Z,63.13
2018-02-15T09:48:08.066Z,66.85
2018-02-15T09:49:10.713Z,57.05
2018-02-15T09:50:13.368Z,49.53
2018-02-15T09:51:16.011Z,50.40
2018-02-15T09:52:19.404Z,51.55
2018-02-15T09:53:22.019Z,57.47
2018-02-15T09:54:24.717Z,56.53
2018-02-15T09:55:28.109Z,50.83
2018-02-15T09:56:30.730Z,56.55
2018-02-15T09:57:33.362Z,53.40
2018-02-15T09:58:35.981Z,55.60
2018-02-15T09:59:39.195Z,58.63
2018-02-15T10:00:43.197Z,60.92
2018-02-15T10:01:45.862Z,52.90
2018-02-15T10:02:49.246Z,56.75
2018-02-15T10:03:51.965Z,62.17
2018-02-15T10:04:55.990Z,52.72
2018-02-15T10:05:58.646Z,51.22
2018-02-15T10:07:01.305Z,51.60
2018-02-15T10:08:04.093Z,51.10
2018-02-15T10:09:07.152Z,62.70
2018-02-15T10:10:09.869Z,58.00
2018-02-15T10:11:14.124Z,59.80
2018-02-15T10:12:16.777Z,54.22
2018-02-15T10:13:20.927Z,51.60
2018-02-15T10:14:25.063Z,49.72
2018-02-15T10:15:27.772Z,53.58
2018-02-15T10:16:31.028Z,53.78
2018-02-15T10:17:33.877Z,47.78
2018-02-15T10:18:36.533Z,47.88
2018-02-15T10:19:39.868Z,42.35
2018-02-15T10:20:42.589Z,50.88
2018-02-15T10:21:46.080Z,49.67
2018-02-15T10:22:49.161Z,49.75
2018-02-15T10:23:53.977Z,55.72
2018-02-15T10:24:57.501Z,46.03
2018-02-15T10:26:00.822Z,52.95
2018-02-15T10:27:03.621Z,50.97
2018-02-15T10:28:06.405Z,44.42
2018-02-15T10:29:09.183Z,47.65
2018-02-15T10:30:11.900Z,46.85
2018-02-15T10:31:14.567Z,50.95
2018-02-15T10:32:17.475Z,42.75
2018-02-15T10:33:20.199Z,52.33
2018-02-15T10:34:23.051Z,48.90
2018-02-15T10:35:25.727Z,52.53
2018-02-15T10:36:28.670Z,51.55
2018-02-15T10:37:31.396Z,46.17
2018-02-15T10:38:34.227Z,49.17
2018-02-15T10:39:36.994Z,46.92
2018-02-15T10:40:40.159Z,48.35
2018-02-15T10:41:43.624Z,46.83
2018-02-15T10:42:46.382Z,48.45
2018-02-15T10:43:50.538Z,48.58
2018-02-15T10:44:53.339Z,42.47
2018-02-15T10:45:56.714Z,45.83
2018-02-15T10:47:00.987Z,46.22
2018-02-15T10:48:04.430Z,48.65
2018-02-15T10:49:07.371Z,48.20
2018-02-15T10:50:10.812Z,42.90
2018-02-15T10:51:13.559Z,43.45
2018-02-15T10:52:17.455Z,47.33
2018-02-15T10:53:20.270Z,55.33
2018-02-15T10:54:23.370Z,48.58
2018-02-15T10:55:26.025Z,48.55
2018-02-15T10:56:28.700Z,53.90
2018-02-15T10:57:32.280Z,47.65
2018-02-15T10:58:35.113Z,46.70
2018-02-15T10:59:38.114Z,46.22
2018-02-15T11:00:46.345Z,49.13
2018-02-15T11:01:49.584Z,48.87
2018-02-15T11:02:57.977Z,46.72
2018-02-15T11:04:04.896Z,48.92
2018-02-15T11:05:13.226Z,46.88
2018-02-15T11:06:16.485Z,45.78
2018-02-15T11:07:19.133Z,46.22
2018-02-15T11:08:21.824Z,51.13
2018-02-15T11:09:24.462Z,57.55
2018-02-15T11:10:27.973Z,48.30
2018-02-15T11:11:30.638Z,58.28
2018-02-15T11:12:33.321Z,57.80
2018-02-15T11:13:36.082Z,55.47
2018-02-15T11:14:39.657Z,55.92
2018-02-15T11:15:43.180Z,57.25
2018-02-15T11:16:46.854Z,56.78
2018-02-15T11:17:49.566Z,54.90
2018-02-15T11:18:53.324Z,60.08
2018-02-15T11:19:56.348Z,53.05
2018-02-15T11:20:59.797Z,49.58
2018-02-15T11:22:03.251Z,45.00
2018-02-15T11:23:06.778Z,60.53
2018-02-15T11:24:10.119Z,56.40
2018-02-15T11:25:12.976Z,51.95
2018-02-15T11:26:16.502Z,50.88
2018-02-15T11:27:19.169Z,51.25
2018-02-15T11:28:21.874Z,53.38
2018-02-15T11:29:25.292Z,53.15
2018-02-15T11:30:28.210Z,51.80
2018-02-15T11:31:30.880Z,56.78
2018-02-15T11:32:34.361Z,48.35
2018-02-15T11:33:37.150Z,52.80
2018-02-15T11:34:39.914Z,53.25
2018-02-15T11:35:42.839Z,51.13
2018-02-15T11:36:46.976Z,52.45
2018-02-15T11:37:49.818Z,47.33
2018-02-15T11:38:52.542Z,52.90
2018-02-15T11:39:56.172Z,51.20
2018-02-15T11:40:58.933Z,57.05
2018-02-15T11:42:02.356Z,57.17
2018-02-15T11:43:05.758Z,52.90
2018-02-15T11:44:08.425Z,52.80
2018-02-15T11:45:11.894Z,53.92
2018-02-15T11:46:14.544Z,56.15
2018-02-15T11:47:17.999Z,51.25
2018-02-15T11:48:20.738Z,49.33
2018-02-15T11:49:24.483Z,50.08
2018-02-15T11:50:27.486Z,50.85
2018-02-15T11:51:30.156Z,49.58
2018-02-15T11:52:32.882Z,53.70
2018-02-15T11:53:35.822Z,50.67
2018-02-15T11:54:38.492Z,53.17
2018-02-15T11:55:41.299Z,51.08
2018-02-15T11:56:44.112Z,48.40
2018-02-15T11:57:47.636Z,50.08
2018-02-15T11:58:50.392Z,59.47
2018-02-15T11:59:54.066Z,54.08
2018-02-15T12:00:57.519Z,51.55
2018-02-15T12:02:00.295Z,55.35
2018-02-15T12:03:03.047Z,53.75
2018-02-15T12:04:06.497Z,52.40
2018-02-15T12:05:09.168Z,57.90
2018-02-15T12:06:13.195Z,57.55
2018-02-15T12:07:16.317Z,52.58
2018-02-15T12:08:20.118Z,59.00
2018-02-15T12:09:22.814Z,55.80
2018-02-15T12:10:25.619Z,55.00
2018-02-15T12:11:28.297Z,49.92
2018-02-15T12:12:31.767Z,57.83
2018-02-15T12:13:35.143Z,53.30
2018-02-15T12:14:38.389Z,56.80
2018-02-15T12:15:42.062Z,53.95
2018-02-15T12:16:44.793Z,54.20
2018-02-15T12:17:47.525Z,54.60
2018-02-15T12:18:50.384Z,51.58
2018-02-15T12:19:53.698Z,51.08
2018-02-15T12:20:56.675Z,61.25
2018-02-15T12:21:59.343Z,48.17
2018-02-15T12:23:02.097Z,55.63
2018-02-15T12:24:05.602Z,59.25
2018-02-15T12:25:08.372Z,59.90
2018-02-15T12:26:11.065Z,52.13
2018-02-15T12:27:14.451Z,59.08
2018-02-15T12:28:17.154Z,50.58
2018-02-15T12:29:19.926Z,57.20
2018-02-15T12:30:22.638Z,59.05
2018-02-15T12:31:26.161Z,59.83
2018-02-15T12:32:28.936Z,57.75
2018-02-15T12:33:31.932Z,54.05
2018-02-15T12:34:35.397Z,53.10
2018-02-15T12:35:39.227Z,61.75
2018-02-15T12:36:41.887Z,64.15
2018-02-15T12:37:45.331Z,63.05
2018-02-15T12:38:48.144Z,59.15
2018-02-15T12:39:51.172Z,58.90
2018-02-15T12:40:54.043Z,57.28
2018-02-15T12:41:56.962Z,63.75
2018-02-15T12:43:00.507Z,58.15
2018-02-15T12:44:03.717Z,59.33
2018-02-15T12:45:07.230Z,61.50
2018-02-15T12:46:09.717Z,55.78
2018-02-15T12:47:12.956Z,60.97
2018-02-15T12:48:15.414Z,58.75
2018-02-15T12:49:17.883Z,55.60
2018-02-15T12:50:20.362Z,56.40
2018-02-15T12:51:22.873Z,57.47
2018-02-15T12:52:26.135Z,58.17
2018-02-15T12:53:28.647Z,62.88
2018-02-15T12:54:31.117Z,59.13
2018-02-15T12:55:33.604Z,58.63
2018-02-15T12:56:36.094Z,59.90
2018-02-15T12:57:38.664Z,56.88
2018-02-15T12:58:41.155Z,62.45
2018-02-15T12:59:44.373Z,66.15
2018-02-15T13:00:47.054Z,59.25
2018-02-15T13:01:49.552Z,57.85
2018-02-15T13:02:52.805Z,57.15
2018-02-15T13:03:56.078Z,60.05
2018-02-15T13:04:58.587Z,62.65
2018-02-15T13:06:01.265Z,61.33
2018-02-15T13:07:03.755Z,66.10
2018-02-15T13:08:06.228Z,66.87
2018-02-15T13:09:09.200Z,64.40
2018-02-15T13:10:11.773Z,58.92
2018-02-15T13:11:14.222Z,64.82
2018-02-15T13:12:28.698Z,65.60
2018-02-15T13:13:31.281Z,61.15
2018-02-15T13:14:33.811Z,62.03
2018-02-15T13:15:48.141Z,65.90
2018-02-15T13:16:57.482Z,57.03
2018-02-15T13:17:59.951Z,69.05
2018-02-15T13:19:14.354Z,56.85
2018-02-15T13:20:18.739Z,57.92